createdAt,value
2022-12-12T00:01:04.478Z,18.70
2022-12-12T00:06:27.040Z,18.66
2022-12-12T00:11:48.699Z,18.63
2022-12-12T00:17:10.506Z,18.61
2022-12-12T00:22:32.344Z,18.56
2022-12-12T00:27:54.110Z,18.54
2022-12-12T00:33:15.784Z,18.51
2022-12-12T00:38:37.436Z,18.49
2022-12-12T00:43:59.124Z,18.44
2022-12-12T00:49:20.883Z,18.42
2022-12-12T00:54:42.693Z,18.38
2022-12-12T01:00:06.338Z,18.35
2022-12-12T01:05:28.440Z,18.34
2022-12-12T01:10:50.131Z,18.30
2022-12-12T01:16:12.827Z,18.28
2022-12-12T01:21:34.608Z,18.26
2022-12-12T01:26:56.273Z,18.23
2022-12-12T01:32:18.016Z,18.21
2022-12-12T01:37:40.883Z,18.20
2022-12-12T01:43:02.783Z,18.18
2022-12-12T01:48:30.203Z,18.16
2022-12-12T01:53:58.971Z,18.12
2022-12-12T01:59:24.435Z,18.10
2022-12-12T02:04:46.280Z,18.08
2022-12-12T02:10:08.650Z,18.07
2022-12-12T02:15:42.740Z,18.07
2022-12-12T02:21:16.229Z,18.03
2022-12-12T02:26:50.387Z,18.02
2022-12-12T02:32:22.253Z,17.99
2022-12-12T02:38:12.504Z,17.97
2022-12-12T02:44:19.143Z,17.95
2022-12-12T02:50:07.104Z,17.93
2022-12-12T02:55:32.466Z,17.88
2022-12-12T03:01:11.473Z,17.89
2022-12-12T03:07:00.928Z,17.84
2022-12-12T03:12:40.435Z,17.84
2022-12-12T03:18:05.110Z,17.80
2022-12-12T03:23:43.862Z,17.82
2022-12-12T03:29:16.590Z,17.80
2022-12-12T03:34:43.470Z,17.77
2022-12-12T03:40:10.437Z,17.76
2022-12-12T03:45:41.400Z,17.73
2022-12-12T03:51:12.043Z,17.74
2022-12-12T03:56:59.164Z,17.71
2022-12-12T04:02:38.565Z,17.68
2022-12-12T04:08:10.173Z,17.67
2022-12-12T04:13:57.024Z,17.65
2022-12-12T04:19:41.818Z,17.59
2022-12-12T04:25:11.371Z,17.61
2022-12-12T04:30:35.214Z,17.56
2022-12-12T04:36:00.452Z,17.56
2022-12-12T04:41:23.314Z,17.53
2022-12-12T04:46:48.610Z,17.53
2022-12-12T04:52:13.770Z,17.51
2022-12-12T04:57:41.973Z,17.50
2022-12-12T05:03:16.480Z,17.49
2022-12-12T05:08:48.908Z,17.49
2022-12-12T05:14:15.565Z,17.46
2022-12-12T05:19:37.301Z,17.45
2022-12-12T05:24:59.024Z,17.43
2022-12-12T05:30:20.788Z,17.42
2022-12-12T05:35:42.495Z,17.42
2022-12-12T05:41:05.472Z,17.41
2022-12-12T05:46:27.246Z,17.38
2022-12-12T05:51:49.029Z,17.36
2022-12-12T05:57:10.776Z,17.34
2022-12-12T06:02:32.720Z,17.32
2022-12-12T06:07:54.446Z,17.33
2022-12-12T06:13:16.296Z,17.33
2022-12-12T06:18:38.076Z,17.32
2022-12-12T06:23:59.840Z,17.31
2022-12-12T06:29:21.754Z,17.30
2022-12-12T06:34:43.505Z,17.30
2022-12-12T06:40:05.785Z,17.29
2022-12-12T06:45:27.505Z,17.29
2022-12-12T06:50:49.233Z,17.28
2022-12-12T06:56:14.954Z,17.26
2022-12-12T07:01:36.575Z,17.21
2022-12-12T07:06:58.560Z,17.22
2022-12-12T07:12:20.362Z,17.18
2022-12-12T07:17:42.117Z,17.18
2022-12-12T07:23:04.094Z,17.15
2022-12-12T07:28:25.901Z,17.14
2022-12-12T07:33:47.880Z,17.11
2022-12-12T07:39:09.894Z,17.08
2022-12-12T07:44:31.636Z,17.06
2022-12-12T07:49:54.742Z,17.05
2022-12-12T07:55:16.799Z,17.04
2022-12-12T08:00:38.549Z,17.04
2022-12-12T08:06:00.187Z,17.06
2022-12-12T08:11:24.395Z,17.05
2022-12-12T08:16:46.200Z,17.05
2022-12-12T08:22:08.774Z,17.05
2022-12-12T08:27:30.416Z,17.06
2022-12-12T08:32:52.150Z,17.06
2022-12-12T08:38:14.776Z,17.04
2022-12-12T08:43:38.026Z,17.06
2022-12-12T08:48:59.712Z,17.05
2022-12-12T08:54:21.449Z,17.05
2022-12-12T08:59:43.149Z,17.03
2022-12-12T09:05:05.502Z,17.03
2022-12-12T09:10:28.217Z,17.03
2022-12-12T09:15:51.906Z,17.03
2022-12-12T09:21:13.765Z,17.01
2022-12-12T09:26:35.437Z,17.02
2022-12-12T09:31:57.426Z,16.99
2022-12-12T09:37:19.195Z,16.98
2022-12-12T09:42:49.372Z,16.99
2022-12-12T09:48:19.290Z,16.97
2022-12-12T09:53:44.126Z,16.94
2022-12-12T09:59:25.054Z,16.95
2022-12-12T10:05:02.942Z,16.92
2022-12-12T10:10:31.574Z,16.92
2022-12-12T10:16:08.373Z,16.91
2022-12-12T10:21:34.158Z,16.88
2022-12-12T10:26:55.846Z,16.84
2022-12-12T10:32:36.348Z,16.88
2022-12-12T10:38:00.714Z,16.86
2022-12-12T10:43:24.525Z,16.85
2022-12-12T10:48:48.586Z,16.87
2022-12-12T10:54:22.279Z,16.87
2022-12-12T10:59:46.795Z,16.86
2022-12-12T11:05:16.845Z,16.87
2022-12-12T11:10:38.624Z,16.85
2022-12-12T11:16:12.903Z,16.86
2022-12-12T11:21:36.808Z,16.84
2022-12-12T11:27:00.332Z,16.84
2022-12-12T11:32:30.008Z,16.83
2022-12-12T11:37:55.988Z,16.82
2022-12-12T11:43:29.168Z,16.83
2022-12-12T11:48:53.973Z,16.80
2022-12-12T11:54:22.865Z,16.79
2022-12-12T11:59:59.242Z,16.77
2022-12-12T12:05:28.088Z,16.74
2022-12-12T12:11:23.881Z,16.74
2022-12-12T12:16:47.219Z,16.70
2022-12-12T12:22:44.687Z,16.70
2022-12-12T12:28:24.885Z,16.63
2022-12-12T12:33:49.256Z,16.65
2022-12-12T12:39:20.385Z,16.63
2022-12-12T12:44:47.884Z,16.62
2022-12-12T12:50:23.960Z,16.65
2022-12-12T12:55:50.820Z,16.61
2022-12-12T13:01:18.570Z,16.61
2022-12-12T13:06:47.411Z,16.62
2022-12-12T13:12:30.365Z,16.62
2022-12-12T13:18:04.689Z,16.61
2022-12-12T13:23:47.628Z,16.58
2022-12-12T13:29:29.330Z,16.57
2022-12-12T13:34:56.886Z,16.56
2022-12-12T13:40:28.596Z,16.56
2022-12-12T13:45:50.323Z,16.55
2022-12-12T13:51:31.137Z,16.57
2022-12-12T13:56:52.752Z,16.56
2022-12-12T14:02:23.363Z,16.57
2022-12-12T14:07:50.672Z,16.56
2022-12-12T14:13:21.333Z,16.57
2022-12-12T14:18:52.198Z,16.56
2022-12-12T14:24:32.549Z,16.55
2022-12-12T14:29:54.502Z,16.54
2022-12-12T14:35:31.528Z,16.55
2022-12-12T14:41:00.628Z,16.54
2022-12-12T14:46:22.327Z,16.52
2022-12-12T14:51:50.919Z,16.52
2022-12-12T14:57:19.756Z,16.50
2022-12-12T15:02:48.443Z,16.48
2022-12-12T15:08:19.359Z,16.47
2022-12-12T15:14:23.858Z,16.44
2022-12-12T15:19:52.313Z,16.44
2022-12-12T15:25:19.834Z,16.42
2022-12-12T15:30:43.985Z,16.40
2022-12-12T15:36:18.369Z,16.41
2022-12-12T15:41:40.495Z,16.37
2022-12-12T15:47:02.485Z,16.35
2022-12-12T15:52:30.574Z,16.35
2022-12-12T15:57:52.956Z,16.31
2022-12-12T16:03:17.367Z,16.32
2022-12-12T16:08:45.507Z,16.31
2022-12-12T16:14:37.058Z,16.31
2022-12-12T16:20:01.407Z,16.28
2022-12-12T16:25:29.538Z,16.28
2022-12-12T16:31:01.102Z,16.28
2022-12-12T16:36:22.749Z,16.32
2022-12-12T16:41:44.819Z,16.79
2022-12-12T16:47:23.753Z,17.59
2022-12-12T16:52:45.598Z,18.29
2022-12-12T16:58:07.796Z,18.98
2022-12-12T17:03:30.671Z,19.52
2022-12-12T17:08:52.405Z,19.88
2022-12-12T17:14:22.466Z,20.07
2022-12-12T17:19:44.257Z,20.13
2022-12-12T17:25:07.140Z,20.08
2022-12-12T17:30:29.039Z,19.92
2022-12-12T17:35:59.184Z,19.73
2022-12-12T17:41:21.049Z,19.49
2022-12-12T17:46:42.863Z,19.31
2022-12-12T17:52:05.051Z,19.11
2022-12-12T17:57:26.977Z,18.94
2022-12-12T18:02:48.753Z,18.89
2022-12-12T18:08:12.748Z,18.97
2022-12-12T18:13:35.261Z,19.07
2022-12-12T18:18:57.668Z,19.20
2022-12-12T18:24:21.573Z,19.36
2022-12-12T18:29:43.333Z,19.62
2022-12-12T18:35:05.453Z,20.04
2022-12-12T18:40:27.279Z,20.44
2022-12-12T18:45:49.023Z,20.78
2022-12-12T18:51:25.200Z,21.10
2022-12-12T18:56:47.477Z,21.33
2022-12-12T19:02:13.023Z,21.46
2022-12-12T19:07:34.720Z,21.50
2022-12-12T19:12:56.391Z,21.42
2022-12-12T19:18:18.111Z,21.21
2022-12-12T19:23:40.539Z,20.93
2022-12-12T19:29:05.171Z,20.67
2022-12-12T19:34:26.884Z,20.46
2022-12-12T19:39:50.794Z,20.32
2022-12-12T19:45:12.574Z,20.15
2022-12-12T19:50:37.512Z,19.98
2022-12-12T19:55:59.204Z,19.82
2022-12-12T20:01:28.698Z,19.67
2022-12-12T20:06:51.105Z,19.54
2022-12-12T20:12:13.046Z,19.53
2022-12-12T20:17:34.754Z,19.84
2022-12-12T20:22:56.503Z,20.24
2022-12-12T20:28:18.538Z,20.51
2022-12-12T20:33:40.942Z,20.60
2022-12-12T20:39:06.485Z,20.53
2022-12-12T20:44:29.268Z,20.36
2022-12-12T20:49:51.162Z,20.26
2022-12-12T20:55:13.020Z,20.13
2022-12-12T21:00:36.699Z,20.04
2022-12-12T21:05:59.740Z,19.99
2022-12-12T21:11:24.017Z,19.94
2022-12-12T21:16:45.931Z,19.85
2022-12-12T21:22:08.558Z,19.77
2022-12-12T21:27:31.527Z,19.64
2022-12-12T21:32:53.234Z,19.54
2022-12-12T21:38:14.928Z,19.44
2022-12-12T21:43:37.116Z,19.34
2022-12-12T21:49:17.561Z,19.25
2022-12-12T21:54:39.499Z,19.17
2022-12-12T22:00:01.190Z,19.08
2022-12-12T22:05:22.923Z,19.01
2022-12-12T22:10:44.617Z,18.95
2022-12-12T22:16:10.705Z,18.90
2022-12-12T22:21:32.667Z,18.81
2022-12-12T22:26:54.481Z,18.70
2022-12-12T22:32:16.234Z,18.61
2022-12-12T22:37:38.060Z,18.51
2022-12-12T22:42:59.890Z,18.43
2022-12-12T22:48:21.738Z,18.36
2022-12-12T22:53:44.466Z,18.30
2022-12-12T22:59:06.962Z,18.21
2022-12-12T23:04:28.716Z,18.15
2022-12-12T23:09:52.947Z,18.10
2022-12-12T23:15:14.856Z,18.05
2022-12-12T23:20:36.730Z,17.99
2022-12-12T23:26:07.178Z,17.95
2022-12-12T23:31:34.922Z,17.91
2022-12-12T23:36:57.087Z,17.84
2022-12-12T23:42:18.818Z,17.81
2022-12-12T23:47:40.473Z,17.77
2022-12-12T23:53:07.541Z,17.74
2022-12-12T23:58:32.062Z,17.69
